Airfield :
LOGIN :

Register | Disclaimer

   EN    FR    IT 

 










Legend :    VFR   Marginal VFR   IFR   Intensive IFR   Very Intensive IFR
Visi :
Ceiling :
>= 8 km
>= 3000ft
5 to 8 km
1000 to 3000 ft
1500m to 5 km
500 to 1000 ft
800 to 1500m
200 to 500 ft
< 800m
< 200 ft
Symbols :   Thunderstorms  Fog  Heavy snow  Heavy precipitations  Wind > 20 kt
SIGMETs :     Misc.  Thunderstorms  Icing  Turbulence  Mountain Waves  Volcanic Ashes






- Airport Elevation : 194 ft
- IATA code : IEG


EPZG - Zielona Gora Babimost

CURRENT METAR :
  • 180800Z VRB02KT 4000 BR OVC004 09/08 Q1019

EXPIRED METARs :
  • 180730Z 04003KT 010V070 5000 BR OVC004 08/07 Q1019
  • 180700Z 05004KT 5000 BR OVC004 08/07 Q1019
  • 180630Z VRB02KT 4500 BR BKN004 OVC010 07/07 Q1019
  • 180600Z VRB01KT 3000 -RA BR SCT002 OVC005 07/06 Q1019

TAF TAF EPZG
Valid from the 18 at 09:00 until the 18 at 18:00 UTC


180830Z 1809/1818 VRB02KT 4000 BR OVC005
BECMG 1809/1812 9999 SCT030
TEMPO 1812/1818 BKN020CB



MET'MAP, your aeronautical weather chart ! - Copyright ORBIFLY December 2007 - Disclaimer

ORBIFLY MET'MAP TEAM :

Programming & Development : Alexandra Zaïnal
Concept & original design : Baudouin d'Aumeries
Assistance for programming : Marc-Olivier Méhu
Technical & hardware support : Manuel Goepfert

Contact : metmap@orbifly.com




SOURCES & CREDITS :

   NOAA